sensor_id;sensor_type;location;lat;lon;timestamp;P1;durP1;ratioP1;P2;durP2;ratioP2
35891;SDS011;21993;42.672;23.296;2022-10-22T00:01:54;26.97;;;15.03;;
35891;SDS011;21993;42.672;23.296;2022-10-22T00:04:20;22.80;;;14.93;;
35891;SDS011;21993;42.672;23.296;2022-10-22T00:06:46;25.27;;;14.40;;
35891;SDS011;21993;42.672;23.296;2022-10-22T00:09:12;23.80;;;13.93;;
35891;SDS011;21993;42.672;23.296;2022-10-22T00:11:38;24.17;;;13.87;;
35891;SDS011;21993;42.672;23.296;2022-10-22T00:14:03;26.17;;;15.03;;
35891;SDS011;21993;42.672;23.296;2022-10-22T00:16:29;26.57;;;14.57;;
35891;SDS011;21993;42.672;23.296;2022-10-22T00:18:54;24.40;;;14.43;;
35891;SDS011;21993;42.672;23.296;2022-10-22T00:21:20;24.33;;;15.43;;
35891;SDS011;21993;42.672;23.296;2022-10-22T00:23:45;20.90;;;13.57;;
35891;SDS011;21993;42.672;23.296;2022-10-22T00:26:11;22.20;;;13.60;;
35891;SDS011;21993;42.672;23.296;2022-10-22T00:28:36;23.67;;;13.87;;
35891;SDS011;21993;42.672;23.296;2022-10-22T00:31:02;20.73;;;12.30;;
35891;SDS011;21993;42.672;23.296;2022-10-22T00:33:28;22.40;;;12.23;;
35891;SDS011;21993;42.672;23.296;2022-10-22T00:35:54;21.93;;;13.03;;
35891;SDS011;21993;42.672;23.296;2022-10-22T00:38:20;18.93;;;12.70;;
35891;SDS011;21993;42.672;23.296;2022-10-22T00:40:45;23.30;;;12.83;;
35891;SDS011;21993;42.672;23.296;2022-10-22T00:43:12;20.53;;;12.17;;
35891;SDS011;21993;42.672;23.296;2022-10-22T00:45:39;22.37;;;12.13;;
35891;SDS011;21993;42.672;23.296;2022-10-22T00:48:12;20.67;;;12.17;;
35891;SDS011;21993;42.672;23.296;2022-10-22T00:50:57;16.67;;;11.43;;
35891;SDS011;21993;42.672;23.296;2022-10-22T00:53:33;18.03;;;11.07;;
35891;SDS011;21993;42.672;23.296;2022-10-22T00:56:01;20.10;;;12.03;;
35891;SDS011;21993;42.672;23.296;2022-10-22T00:58:28;20.20;;;12.07;;
35891;SDS011;21993;42.672;23.296;2022-10-22T01:00:57;16.83;;;11.10;;
35891;SDS011;21993;42.672;23.296;2022-10-22T01:03:23;20.00;;;12.67;;
35891;SDS011;21993;42.672;23.296;2022-10-22T01:05:51;20.03;;;12.63;;
35891;SDS011;21993;42.672;23.296;2022-10-22T01:08:25;18.77;;;11.90;;
35891;SDS011;21993;42.672;23.296;2022-10-22T01:11:11;20.37;;;11.70;;
35891;SDS011;21993;42.672;23.296;2022-10-22T01:19:04;18.97;;;11.57;;
35891;SDS011;21993;42.672;23.296;2022-10-22T01:21:43;15.07;;;10.43;;
35891;SDS011;21993;42.672;23.296;2022-10-22T01:24:27;20.23;;;11.80;;
35891;SDS011;21993;42.672;23.296;2022-10-22T01:27:08;19.63;;;11.60;;
35891;SDS011;21993;42.672;23.296;2022-10-22T01:29:42;20.07;;;12.73;;
35891;SDS011;21993;42.672;23.296;2022-10-22T01:32:14;22.23;;;14.93;;
35891;SDS011;21993;42.672;23.296;2022-10-22T01:34:43;24.93;;;14.10;;
35891;SDS011;21993;42.672;23.296;2022-10-22T01:37:13;17.87;;;11.80;;
35891;SDS011;21993;42.672;23.296;2022-10-22T01:39:41;21.97;;;11.23;;
35891;SDS011;21993;42.672;23.296;2022-10-22T01:42:11;22.30;;;11.03;;
35891;SDS011;21993;42.672;23.296;2022-10-22T01:44:37;18.10;;;12.00;;
35891;SDS011;21993;42.672;23.296;2022-10-22T02:00:35;17.10;;;10.97;;
35891;SDS011;21993;42.672;23.296;2022-10-22T02:03:05;19.63;;;10.83;;
35891;SDS011;21993;42.672;23.296;2022-10-22T02:05:36;18.07;;;12.13;;
35891;SDS011;21993;42.672;23.296;2022-10-22T02:08:08;20.17;;;12.00;;
35891;SDS011;21993;42.672;23.296;2022-10-22T02:10:36;21.33;;;11.93;;
35891;SDS011;21993;42.672;23.296;2022-10-22T02:13:04;20.93;;;11.30;;
35891;SDS011;21993;42.672;23.296;2022-10-22T02:15:33;18.83;;;11.50;;
35891;SDS011;21993;42.672;23.296;2022-10-22T02:18:02;17.50;;;10.90;;
35891;SDS011;21993;42.672;23.296;2022-10-22T02:20:31;16.57;;;11.27;;
35891;SDS011;21993;42.672;23.296;2022-10-22T02:22:58;20.40;;;10.77;;
35891;SDS011;21993;42.672;23.296;2022-10-22T02:25:26;17.67;;;10.47;;
35891;SDS011;21993;42.672;23.296;2022-10-22T02:30:27;16.13;;;11.30;;
35891;SDS011;21993;42.672;23.296;2022-10-22T02:35:22;14.90;;;10.90;;
35891;SDS011;21993;42.672;23.296;2022-10-22T02:37:50;17.53;;;11.57;;
35891;SDS011;21993;42.672;23.296;2022-10-22T02:40:17;20.70;;;11.93;;
35891;SDS011;21993;42.672;23.296;2022-10-22T02:42:43;22.93;;;11.50;;
35891;SDS011;21993;42.672;23.296;2022-10-22T02:45:11;19.13;;;11.00;;
35891;SDS011;21993;42.672;23.296;2022-10-22T02:47:37;18.67;;;11.53;;
35891;SDS011;21993;42.672;23.296;2022-10-22T02:50:02;21.20;;;11.13;;
35891;SDS011;21993;42.672;23.296;2022-10-22T02:52:28;19.63;;;11.00;;
35891;SDS011;21993;42.672;23.296;2022-10-22T02:54:53;18.87;;;11.93;;
35891;SDS011;21993;42.672;23.296;2022-10-22T02:57:19;25.20;;;11.03;;
35891;SDS011;21993;42.672;23.296;2022-10-22T02:59:44;24.70;;;13.17;;
35891;SDS011;21993;42.672;23.296;2022-10-22T03:02:09;20.17;;;11.63;;
35891;SDS011;21993;42.672;23.296;2022-10-22T03:04:35;21.83;;;12.07;;
35891;SDS011;21993;42.672;23.296;2022-10-22T03:07:00;18.00;;;11.20;;
35891;SDS011;21993;42.672;23.296;2022-10-22T03:09:26;22.73;;;12.53;;
35891;SDS011;21993;42.672;23.296;2022-10-22T03:11:51;22.30;;;12.33;;
35891;SDS011;21993;42.672;23.296;2022-10-22T03:14:17;18.13;;;10.70;;
35891;SDS011;21993;42.672;23.296;2022-10-22T03:16:42;19.40;;;10.77;;
35891;SDS011;21993;42.672;23.296;2022-10-22T03:19:08;19.57;;;11.50;;
35891;SDS011;21993;42.672;23.296;2022-10-22T03:24:23;16.60;;;11.03;;
35891;SDS011;21993;42.672;23.296;2022-10-22T03:26:52;17.03;;;11.17;;
35891;SDS011;21993;42.672;23.296;2022-10-22T03:29:19;20.93;;;12.97;;
35891;SDS011;21993;42.672;23.296;2022-10-22T03:31:46;25.73;;;11.80;;
35891;SDS011;21993;42.672;23.296;2022-10-22T03:34:11;21.23;;;11.13;;
35891;SDS011;21993;42.672;23.296;2022-10-22T03:36:38;14.63;;;10.47;;
35891;SDS011;21993;42.672;23.296;2022-10-22T03:39:05;18.23;;;11.03;;
35891;SDS011;21993;42.672;23.296;2022-10-22T03:41:31;17.77;;;11.37;;
35891;SDS011;21993;42.672;23.296;2022-10-22T03:43:58;21.53;;;11.97;;
35891;SDS011;21993;42.672;23.296;2022-10-22T03:46:25;21.83;;;12.07;;
35891;SDS011;21993;42.672;23.296;2022-10-22T03:48:51;18.13;;;11.43;;
35891;SDS011;21993;42.672;23.296;2022-10-22T03:51:16;20.57;;;12.57;;
35891;SDS011;21993;42.672;23.296;2022-10-22T03:53:44;18.93;;;11.37;;
35891;SDS011;21993;42.672;23.296;2022-10-22T03:56:10;20.57;;;12.20;;
35891;SDS011;21993;42.672;23.296;2022-10-22T03:58:37;17.67;;;11.43;;
35891;SDS011;21993;42.672;23.296;2022-10-22T04:01:07;20.47;;;11.40;;
35891;SDS011;21993;42.672;23.296;2022-10-22T04:03:34;19.07;;;12.70;;
35891;SDS011;21993;42.672;23.296;2022-10-22T04:06:04;17.50;;;12.10;;
35891;SDS011;21993;42.672;23.296;2022-10-22T04:08:32;21.33;;;12.80;;
35891;SDS011;21993;42.672;23.296;2022-10-22T04:10:58;22.40;;;13.20;;
35891;SDS011;21993;42.672;23.296;2022-10-22T04:13:23;21.07;;;13.07;;
35891;SDS011;21993;42.672;23.296;2022-10-22T04:15:49;22.77;;;13.40;;
35891;SDS011;21993;42.672;23.296;2022-10-22T04:18:16;21.83;;;14.23;;
35891;SDS011;21993;42.672;23.296;2022-10-22T04:20:42;20.60;;;13.43;;
35891;SDS011;21993;42.672;23.296;2022-10-22T04:23:08;22.93;;;13.37;;
35891;SDS011;21993;42.672;23.296;2022-10-22T04:25:33;27.17;;;14.47;;
35891;SDS011;21993;42.672;23.296;2022-10-22T04:27:59;21.90;;;13.43;;
35891;SDS011;21993;42.672;23.296;2022-10-22T04:30:24;20.97;;;13.73;;
35891;SDS011;21993;42.672;23.296;2022-10-22T04:32:49;23.23;;;13.27;;
35891;SDS011;21993;42.672;23.296;2022-10-22T04:35:15;24.17;;;13.93;;
35891;SDS011;21993;42.672;23.296;2022-10-22T04:37:40;23.57;;;13.67;;
35891;SDS011;21993;42.672;23.296;2022-10-22T04:40:06;27.27;;;14.07;;
35891;SDS011;21993;42.672;23.296;2022-10-22T04:42:32;21.43;;;12.93;;
35891;SDS011;21993;42.672;23.296;2022-10-22T04:44:57;20.60;;;13.07;;
35891;SDS011;21993;42.672;23.296;2022-10-22T04:47:23;29.00;;;15.80;;
35891;SDS011;21993;42.672;23.296;2022-10-22T04:49:48;23.97;;;13.87;;
35891;SDS011;21993;42.672;23.296;2022-10-22T04:52:14;21.73;;;13.83;;
35891;SDS011;21993;42.672;23.296;2022-10-22T04:54:39;20.30;;;13.63;;
35891;SDS011;21993;42.672;23.296;2022-10-22T04:57:04;23.23;;;13.47;;
35891;SDS011;21993;42.672;23.296;2022-10-22T04:59:30;27.63;;;13.97;;
35891;SDS011;21993;42.672;23.296;2022-10-22T05:01:55;28.73;;;14.10;;
35891;SDS011;21993;42.672;23.296;2022-10-22T05:04:21;23.87;;;13.80;;
35891;SDS011;21993;42.672;23.296;2022-10-22T05:06:46;43.23;;;15.57;;
35891;SDS011;21993;42.672;23.296;2022-10-22T05:09:13;25.57;;;14.57;;
35891;SDS011;21993;42.672;23.296;2022-10-22T05:11:41;26.60;;;15.47;;
35891;SDS011;21993;42.672;23.296;2022-10-22T05:14:14;26.37;;;15.83;;
35891;SDS011;21993;42.672;23.296;2022-10-22T05:16:41;29.80;;;16.33;;
35891;SDS011;21993;42.672;23.296;2022-10-22T05:19:07;22.30;;;14.93;;
35891;SDS011;21993;42.672;23.296;2022-10-22T05:21:33;26.70;;;14.30;;
35891;SDS011;21993;42.672;23.296;2022-10-22T05:24:00;28.63;;;16.33;;
35891;SDS011;21993;42.672;23.296;2022-10-22T05:26:26;25.00;;;15.80;;
35891;SDS011;21993;42.672;23.296;2022-10-22T05:28:53;24.83;;;14.73;;
35891;SDS011;21993;42.672;23.296;2022-10-22T05:31:18;25.77;;;15.10;;
35891;SDS011;21993;42.672;23.296;2022-10-22T05:33:45;28.67;;;15.43;;
35891;SDS011;21993;42.672;23.296;2022-10-22T05:36:11;29.97;;;16.50;;
35891;SDS011;21993;42.672;23.296;2022-10-22T05:38:39;25.23;;;15.20;;
35891;SDS011;21993;42.672;23.296;2022-10-22T05:41:11;24.77;;;16.63;;
35891;SDS011;21993;42.672;23.296;2022-10-22T05:43:38;27.73;;;16.47;;
35891;SDS011;21993;42.672;23.296;2022-10-22T05:46:14;23.47;;;14.57;;
35891;SDS011;21993;42.672;23.296;2022-10-22T05:48:42;27.73;;;15.90;;
35891;SDS011;21993;42.672;23.296;2022-10-22T05:51:11;24.70;;;15.00;;
35891;SDS011;21993;42.672;23.296;2022-10-22T05:53:40;33.13;;;17.50;;
35891;SDS011;21993;42.672;23.296;2022-10-22T05:56:13;33.33;;;16.57;;
35891;SDS011;21993;42.672;23.296;2022-10-22T05:58:41;24.83;;;16.17;;
35891;SDS011;21993;42.672;23.296;2022-10-22T06:01:10;29.00;;;16.53;;
35891;SDS011;21993;42.672;23.296;2022-10-22T06:03:38;31.67;;;17.27;;
35891;SDS011;21993;42.672;23.296;2022-10-22T06:06:06;38.73;;;23.63;;
35891;SDS011;21993;42.672;23.296;2022-10-22T06:08:42;34.87;;;20.23;;
35891;SDS011;21993;42.672;23.296;2022-10-22T06:11:08;30.13;;;17.00;;
35891;SDS011;21993;42.672;23.296;2022-10-22T06:13:33;30.50;;;16.87;;
35891;SDS011;21993;42.672;23.296;2022-10-22T06:15:58;35.57;;;17.87;;
35891;SDS011;21993;42.672;23.296;2022-10-22T06:18:24;29.67;;;16.83;;
35891;SDS011;21993;42.672;23.296;2022-10-22T06:20:49;27.20;;;16.50;;
35891;SDS011;21993;42.672;23.296;2022-10-22T06:23:15;30.57;;;15.77;;
35891;SDS011;21993;42.672;23.296;2022-10-22T06:25:40;23.57;;;16.10;;
35891;SDS011;21993;42.672;23.296;2022-10-22T06:28:06;32.73;;;18.37;;
35891;SDS011;21993;42.672;23.296;2022-10-22T06:30:32;29.57;;;17.53;;
35891;SDS011;21993;42.672;23.296;2022-10-22T06:32:57;25.70;;;16.50;;
35891;SDS011;21993;42.672;23.296;2022-10-22T06:35:25;26.90;;;17.80;;
35891;SDS011;21993;42.672;23.296;2022-10-22T06:37:50;29.97;;;18.53;;
35891;SDS011;21993;42.672;23.296;2022-10-22T06:40:16;30.57;;;18.47;;
35891;SDS011;21993;42.672;23.296;2022-10-22T06:42:42;29.07;;;18.13;;
35891;SDS011;21993;42.672;23.296;2022-10-22T06:45:08;31.47;;;18.20;;
35891;SDS011;21993;42.672;23.296;2022-10-22T06:47:34;35.03;;;18.63;;
35891;SDS011;21993;42.672;23.296;2022-10-22T06:49:59;33.27;;;19.63;;
35891;SDS011;21993;42.672;23.296;2022-10-22T06:52:25;29.97;;;18.60;;
35891;SDS011;21993;42.672;23.296;2022-10-22T06:54:50;28.87;;;17.93;;
35891;SDS011;21993;42.672;23.296;2022-10-22T06:57:15;34.33;;;18.70;;
35891;SDS011;21993;42.672;23.296;2022-10-22T06:59:41;33.17;;;17.43;;
35891;SDS011;21993;42.672;23.296;2022-10-22T07:02:07;30.97;;;18.17;;
35891;SDS011;21993;42.672;23.296;2022-10-22T07:04:34;31.83;;;18.40;;
35891;SDS011;21993;42.672;23.296;2022-10-22T07:07:00;27.47;;;17.40;;
35891;SDS011;21993;42.672;23.296;2022-10-22T07:09:25;37.97;;;19.13;;
35891;SDS011;21993;42.672;23.296;2022-10-22T07:11:51;36.60;;;18.50;;
35891;SDS011;21993;42.672;23.296;2022-10-22T07:14:17;28.97;;;17.53;;
35891;SDS011;21993;42.672;23.296;2022-10-22T07:16:42;34.50;;;18.10;;
35891;SDS011;21993;42.672;23.296;2022-10-22T07:19:09;31.87;;;19.10;;
35891;SDS011;21993;42.672;23.296;2022-10-22T07:21:35;30.47;;;19.17;;
35891;SDS011;21993;42.672;23.296;2022-10-22T07:24:00;30.10;;;18.20;;
35891;SDS011;21993;42.672;23.296;2022-10-22T07:26:26;30.87;;;17.97;;
35891;SDS011;21993;42.672;23.296;2022-10-22T07:28:54;31.03;;;18.40;;
35891;SDS011;21993;42.672;23.296;2022-10-22T07:31:21;29.03;;;17.77;;
35891;SDS011;21993;42.672;23.296;2022-10-22T07:33:46;29.37;;;16.87;;
35891;SDS011;21993;42.672;23.296;2022-10-22T07:36:12;30.20;;;18.83;;
35891;SDS011;21993;42.672;23.296;2022-10-22T07:38:42;30.97;;;18.57;;
35891;SDS011;21993;42.672;23.296;2022-10-22T07:41:13;27.37;;;16.57;;
35891;SDS011;21993;42.672;23.296;2022-10-22T07:43:39;30.93;;;17.13;;
35891;SDS011;21993;42.672;23.296;2022-10-22T07:46:07;30.37;;;17.17;;
35891;SDS011;21993;42.672;23.296;2022-10-22T07:48:33;26.57;;;15.37;;
35891;SDS011;21993;42.672;23.296;2022-10-22T07:51:00;26.70;;;15.93;;
35891;SDS011;21993;42.672;23.296;2022-10-22T07:53:26;23.50;;;14.57;;
35891;SDS011;21993;42.672;23.296;2022-10-22T07:55:54;23.97;;;14.70;;
35891;SDS011;21993;42.672;23.296;2022-10-22T07:58:20;21.87;;;14.93;;
35891;SDS011;21993;42.672;23.296;2022-10-22T08:00:49;24.30;;;15.40;;
35891;SDS011;21993;42.672;23.296;2022-10-22T08:03:18;31.83;;;19.13;;
35891;SDS011;21993;42.672;23.296;2022-10-22T08:05:44;32.03;;;18.43;;
35891;SDS011;21993;42.672;23.296;2022-10-22T08:08:10;29.20;;;16.93;;
35891;SDS011;21993;42.672;23.296;2022-10-22T08:10:39;28.20;;;16.97;;
35891;SDS011;21993;42.672;23.296;2022-10-22T08:13:04;28.47;;;17.40;;
35891;SDS011;21993;42.672;23.296;2022-10-22T08:15:31;30.00;;;17.50;;
35891;SDS011;21993;42.672;23.296;2022-10-22T08:17:56;27.33;;;16.77;;
35891;SDS011;21993;42.672;23.296;2022-10-22T08:20:22;28.17;;;15.57;;
35891;SDS011;21993;42.672;23.296;2022-10-22T08:22:47;24.10;;;14.97;;
35891;SDS011;21993;42.672;23.296;2022-10-22T08:25:13;26.07;;;17.03;;
35891;SDS011;21993;42.672;23.296;2022-10-22T08:27:39;27.97;;;15.57;;
35891;SDS011;21993;42.672;23.296;2022-10-22T08:30:07;24.33;;;15.50;;
35891;SDS011;21993;42.672;23.296;2022-10-22T08:32:38;24.87;;;15.63;;
35891;SDS011;21993;42.672;23.296;2022-10-22T08:35:04;25.43;;;15.90;;
35891;SDS011;21993;42.672;23.296;2022-10-22T08:37:38;23.40;;;16.30;;
35891;SDS011;21993;42.672;23.296;2022-10-22T10:06:09;28.83;;;16.60;;
35891;SDS011;21993;42.672;23.296;2022-10-22T10:08:46;27.97;;;16.93;;
35891;SDS011;21993;42.672;23.296;2022-10-22T10:11:31;25.80;;;17.27;;
35891;SDS011;21993;42.672;23.296;2022-10-22T10:14:20;28.70;;;16.10;;
35891;SDS011;21993;42.672;23.296;2022-10-22T10:17:52;23.60;;;16.10;;
35891;SDS011;21993;42.672;23.296;2022-10-22T10:25:38;26.87;;;16.57;;
35891;SDS011;21993;42.672;23.296;2022-10-22T10:37:03;24.07;;;15.03;;
35891;SDS011;21993;42.672;23.296;2022-10-22T10:43:14;25.23;;;15.27;;
35891;SDS011;21993;42.672;23.296;2022-10-22T10:56:59;22.47;;;14.33;;
35891;SDS011;21993;42.672;23.296;2022-10-22T11:11:46;26.90;;;16.40;;
35891;SDS011;21993;42.672;23.296;2022-10-22T11:14:21;25.83;;;17.10;;
35891;SDS011;21993;42.672;23.296;2022-10-22T11:17:17;22.97;;;15.53;;
35891;SDS011;21993;42.672;23.296;2022-10-22T11:20:03;19.90;;;14.90;;
35891;SDS011;21993;42.672;23.296;2022-10-22T11:22:41;25.50;;;15.23;;
35891;SDS011;21993;42.672;23.296;2022-10-22T11:25:24;25.27;;;15.43;;
35891;SDS011;21993;42.672;23.296;2022-10-22T11:33:51;21.50;;;14.37;;
35891;SDS011;21993;42.672;23.296;2022-10-22T11:36:47;26.37;;;15.73;;
35891;SDS011;21993;42.672;23.296;2022-10-22T11:39:30;21.73;;;14.67;;
35891;SDS011;21993;42.672;23.296;2022-10-22T11:42:17;20.33;;;13.33;;
35891;SDS011;21993;42.672;23.296;2022-10-22T11:44:49;22.30;;;13.37;;
35891;SDS011;21993;42.672;23.296;2022-10-22T11:47:30;20.47;;;14.33;;
35891;SDS011;21993;42.672;23.296;2022-10-22T11:58:25;19.00;;;13.27;;
35891;SDS011;21993;42.672;23.296;2022-10-22T12:00:55;20.53;;;12.30;;
35891;SDS011;21993;42.672;23.296;2022-10-22T12:06:28;16.83;;;12.37;;
35891;SDS011;21993;42.672;23.296;2022-10-22T12:16:43;20.83;;;13.17;;
35891;SDS011;21993;42.672;23.296;2022-10-22T12:19:15;18.07;;;12.37;;
35891;SDS011;21993;42.672;23.296;2022-10-22T12:21:50;19.30;;;13.23;;
35891;SDS011;21993;42.672;23.296;2022-10-22T12:24:22;20.83;;;13.63;;
35891;SDS011;21993;42.672;23.296;2022-10-22T12:26:49;19.63;;;13.20;;
35891;SDS011;21993;42.672;23.296;2022-10-22T12:29:17;19.97;;;12.27;;
35891;SDS011;21993;42.672;23.296;2022-10-22T12:31:46;13.10;;;11.07;;
35891;SDS011;21993;42.672;23.296;2022-10-22T12:34:13;18.30;;;11.73;;
35891;SDS011;21993;42.672;23.296;2022-10-22T12:36:40;17.47;;;11.67;;
35891;SDS011;21993;42.672;23.296;2022-10-22T12:39:13;16.07;;;11.77;;
35891;SDS011;21993;42.672;23.296;2022-10-22T12:41:40;16.00;;;11.63;;
35891;SDS011;21993;42.672;23.296;2022-10-22T12:44:06;17.97;;;11.90;;
35891;SDS011;21993;42.672;23.296;2022-10-22T12:46:37;14.70;;;11.07;;
35891;SDS011;21993;42.672;23.296;2022-10-22T12:49:03;21.53;;;11.60;;
35891;SDS011;21993;42.672;23.296;2022-10-22T12:51:32;15.77;;;11.03;;
35891;SDS011;21993;42.672;23.296;2022-10-22T12:54:05;16.03;;;11.53;;
35891;SDS011;21993;42.672;23.296;2022-10-22T12:56:33;13.27;;;10.30;;
35891;SDS011;21993;42.672;23.296;2022-10-22T12:59:04;14.63;;;11.27;;
35891;SDS011;21993;42.672;23.296;2022-10-22T13:01:38;15.07;;;10.60;;
35891;SDS011;21993;42.672;23.296;2022-10-22T13:09:45;15.93;;;10.27;;
35891;SDS011;21993;42.672;23.296;2022-10-22T13:12:25;14.10;;;9.43;;
35891;SDS011;21993;42.672;23.296;2022-10-22T13:15:48;17.83;;;10.50;;
35891;SDS011;21993;42.672;23.296;2022-10-22T13:17:59;16.10;;;10.87;;
35891;SDS011;21993;42.672;23.296;2022-10-22T13:20:28;15.17;;;9.60;;
35891;SDS011;21993;42.672;23.296;2022-10-22T13:22:58;14.83;;;10.03;;
35891;SDS011;21993;42.672;23.296;2022-10-22T13:25:30;15.90;;;10.20;;
35891;SDS011;21993;42.672;23.296;2022-10-22T13:30:35;17.57;;;9.93;;
35891;SDS011;21993;42.672;23.296;2022-10-22T13:35:29;14.00;;;9.97;;
35891;SDS011;21993;42.672;23.296;2022-10-22T13:37:57;17.60;;;9.57;;
35891;SDS011;21993;42.672;23.296;2022-10-22T13:40:23;16.37;;;10.37;;
35891;SDS011;21993;42.672;23.296;2022-10-22T13:42:49;14.30;;;10.33;;
35891;SDS011;21993;42.672;23.296;2022-10-22T13:45:14;12.27;;;9.70;;
35891;SDS011;21993;42.672;23.296;2022-10-22T13:47:41;21.13;;;11.20;;
35891;SDS011;21993;42.672;23.296;2022-10-22T13:50:13;15.60;;;10.70;;
35891;SDS011;21993;42.672;23.296;2022-10-22T13:52:42;18.23;;;9.60;;
35891;SDS011;21993;42.672;23.296;2022-10-22T13:55:19;11.60;;;9.50;;
35891;SDS011;21993;42.672;23.296;2022-10-22T13:57:49;14.83;;;9.63;;
35891;SDS011;21993;42.672;23.296;2022-10-22T14:00:16;15.83;;;9.97;;
35891;SDS011;21993;42.672;23.296;2022-10-22T14:02:44;16.90;;;9.77;;
35891;SDS011;21993;42.672;23.296;2022-10-22T14:05:12;16.53;;;12.13;;
35891;SDS011;21993;42.672;23.296;2022-10-22T14:07:38;14.30;;;9.90;;
35891;SDS011;21993;42.672;23.296;2022-10-22T14:10:23;17.70;;;11.43;;
35891;SDS011;21993;42.672;23.296;2022-10-22T14:12:49;14.47;;;10.23;;
35891;SDS011;21993;42.672;23.296;2022-10-22T14:15:16;16.00;;;9.77;;
35891;SDS011;21993;42.672;23.296;2022-10-22T14:17:44;15.20;;;11.40;;
35891;SDS011;21993;42.672;23.296;2022-10-22T14:20:32;19.53;;;11.53;;
35891;SDS011;21993;42.672;23.296;2022-10-22T14:23:06;18.80;;;13.20;;
35891;SDS011;21993;42.672;23.296;2022-10-22T14:25:38;15.03;;;9.17;;
35891;SDS011;21993;42.672;23.296;2022-10-22T14:28:04;12.73;;;9.13;;
35891;SDS011;21993;42.672;23.296;2022-10-22T14:30:29;20.90;;;11.27;;
35891;SDS011;21993;42.672;23.296;2022-10-22T14:32:59;17.83;;;11.73;;
35891;SDS011;21993;42.672;23.296;2022-10-22T14:35:24;23.20;;;16.27;;
35891;SDS011;21993;42.672;23.296;2022-10-22T14:37:50;21.20;;;14.37;;
35891;SDS011;21993;42.672;23.296;2022-10-22T14:40:17;22.37;;;14.30;;
35891;SDS011;21993;42.672;23.296;2022-10-22T14:42:45;18.77;;;13.30;;
35891;SDS011;21993;42.672;23.296;2022-10-22T14:45:22;19.63;;;11.83;;
35891;SDS011;21993;42.672;23.296;2022-10-22T14:47:51;16.03;;;11.47;;
35891;SDS011;21993;42.672;23.296;2022-10-22T14:50:21;13.50;;;9.97;;
35891;SDS011;21993;42.672;23.296;2022-10-22T14:52:48;14.40;;;9.70;;
35891;SDS011;21993;42.672;23.296;2022-10-22T14:55:14;21.23;;;12.30;;
35891;SDS011;21993;42.672;23.296;2022-10-22T14:57:41;23.80;;;12.63;;
35891;SDS011;21993;42.672;23.296;2022-10-22T15:00:08;24.73;;;11.90;;
35891;SDS011;21993;42.672;23.296;2022-10-22T15:02:38;22.47;;;11.60;;
35891;SDS011;21993;42.672;23.296;2022-10-22T15:05:04;17.50;;;12.13;;
35891;SDS011;21993;42.672;23.296;2022-10-22T15:07:30;22.70;;;12.70;;
35891;SDS011;21993;42.672;23.296;2022-10-22T15:09:56;25.30;;;13.97;;
35891;SDS011;21993;42.672;23.296;2022-10-22T15:12:21;28.00;;;14.13;;
35891;SDS011;21993;42.672;23.296;2022-10-22T15:14:47;23.17;;;13.13;;
35891;SDS011;21993;42.672;23.296;2022-10-22T15:17:13;27.00;;;14.27;;
35891;SDS011;21993;42.672;23.296;2022-10-22T15:19:40;28.40;;;14.20;;
35891;SDS011;21993;42.672;23.296;2022-10-22T15:22:07;28.20;;;15.17;;
35891;SDS011;21993;42.672;23.296;2022-10-22T15:24:36;24.27;;;14.90;;
35891;SDS011;21993;42.672;23.296;2022-10-22T15:27:03;25.17;;;13.73;;
35891;SDS011;21993;42.672;23.296;2022-10-22T15:29:29;26.80;;;14.23;;
35891;SDS011;21993;42.672;23.296;2022-10-22T15:31:56;26.53;;;13.87;;
35891;SDS011;21993;42.672;23.296;2022-10-22T15:34:27;32.93;;;17.97;;
35891;SDS011;21993;42.672;23.296;2022-10-22T15:36:55;33.27;;;17.50;;
35891;SDS011;21993;42.672;23.296;2022-10-22T15:39:22;28.03;;;14.30;;
35891;SDS011;21993;42.672;23.296;2022-10-22T15:41:49;23.97;;;13.97;;
35891;SDS011;21993;42.672;23.296;2022-10-22T15:44:15;19.93;;;13.47;;
35891;SDS011;21993;42.672;23.296;2022-10-22T15:46:43;33.43;;;15.40;;
35891;SDS011;21993;42.672;23.296;2022-10-22T15:49:08;27.40;;;14.20;;
35891;SDS011;21993;42.672;23.296;2022-10-22T15:51:34;25.90;;;14.37;;
35891;SDS011;21993;42.672;23.296;2022-10-22T15:54:00;24.47;;;14.37;;
35891;SDS011;21993;42.672;23.296;2022-10-22T15:56:26;20.87;;;13.40;;
35891;SDS011;21993;42.672;23.296;2022-10-22T15:58:53;37.77;;;14.73;;
35891;SDS011;21993;42.672;23.296;2022-10-22T16:01:21;38.00;;;16.13;;
35891;SDS011;21993;42.672;23.296;2022-10-22T16:03:48;28.07;;;16.67;;
35891;SDS011;21993;42.672;23.296;2022-10-22T16:06:17;35.40;;;16.97;;
35891;SDS011;21993;42.672;23.296;2022-10-22T16:08:43;29.90;;;17.70;;
35891;SDS011;21993;42.672;23.296;2022-10-22T16:11:09;32.50;;;20.13;;
35891;SDS011;21993;42.672;23.296;2022-10-22T16:13:34;31.47;;;17.33;;
35891;SDS011;21993;42.672;23.296;2022-10-22T16:16:03;29.13;;;16.83;;
35891;SDS011;21993;42.672;23.296;2022-10-22T16:18:31;31.73;;;17.37;;
35891;SDS011;21993;42.672;23.296;2022-10-22T16:20:57;28.73;;;17.00;;
35891;SDS011;21993;42.672;23.296;2022-10-22T16:23:23;36.00;;;17.90;;
35891;SDS011;21993;42.672;23.296;2022-10-22T16:25:48;33.40;;;15.90;;
35891;SDS011;21993;42.672;23.296;2022-10-22T16:28:14;28.90;;;16.57;;
35891;SDS011;21993;42.672;23.296;2022-10-22T16:30:39;28.07;;;16.30;;
35891;SDS011;21993;42.672;23.296;2022-10-22T16:33:05;29.47;;;16.43;;
35891;SDS011;21993;42.672;23.296;2022-10-22T16:35:32;38.50;;;18.03;;
35891;SDS011;21993;42.672;23.296;2022-10-22T16:37:58;27.70;;;15.83;;
35891;SDS011;21993;42.672;23.296;2022-10-22T16:40:23;39.13;;;18.10;;
35891;SDS011;21993;42.672;23.296;2022-10-22T16:42:49;34.33;;;16.90;;
35891;SDS011;21993;42.672;23.296;2022-10-22T16:45:15;29.33;;;16.47;;
35891;SDS011;21993;42.672;23.296;2022-10-22T16:47:40;33.13;;;17.43;;
35891;SDS011;21993;42.672;23.296;2022-10-22T16:50:11;31.53;;;17.90;;
35891;SDS011;21993;42.672;23.296;2022-10-22T16:52:37;29.27;;;17.93;;
35891;SDS011;21993;42.672;23.296;2022-10-22T16:55:02;37.10;;;19.50;;
35891;SDS011;21993;42.672;23.296;2022-10-22T16:57:28;28.70;;;16.37;;
35891;SDS011;21993;42.672;23.296;2022-10-22T16:59:55;25.00;;;16.33;;
35891;SDS011;21993;42.672;23.296;2022-10-22T17:02:21;42.73;;;19.43;;
35891;SDS011;21993;42.672;23.296;2022-10-22T17:04:46;94.83;;;34.87;;
35891;SDS011;21993;42.672;23.296;2022-10-22T17:07:12;76.30;;;31.87;;
35891;SDS011;21993;42.672;23.296;2022-10-22T17:09:37;60.33;;;28.90;;
35891;SDS011;21993;42.672;23.296;2022-10-22T17:12:03;41.67;;;21.53;;
35891;SDS011;21993;42.672;23.296;2022-10-22T17:14:29;45.37;;;21.57;;
35891;SDS011;21993;42.672;23.296;2022-10-22T17:16:54;46.00;;;22.67;;
35891;SDS011;21993;42.672;23.296;2022-10-22T17:19:20;39.33;;;20.90;;
35891;SDS011;21993;42.672;23.296;2022-10-22T17:21:46;63.77;;;27.80;;
35891;SDS011;21993;42.672;23.296;2022-10-22T17:24:15;43.40;;;21.73;;
35891;SDS011;21993;42.672;23.296;2022-10-22T17:26:41;38.60;;;20.53;;